sensor_id;sensor_type;location;lat;lon;timestamp;temperature;humidity
14277;DHT22;7222;57.346;12.150;2022-11-18T00:00:46;2.20;99.90
14277;DHT22;7222;57.346;12.150;2022-11-18T00:03:14;2.20;99.90
14277;DHT22;7222;57.346;12.150;2022-11-18T00:05:41;2.30;99.90
14277;DHT22;7222;57.346;12.150;2022-11-18T00:08:08;2.30;99.90
14277;DHT22;7222;57.346;12.150;2022-11-18T00:10:36;2.40;99.90
14277;DHT22;7222;57.346;12.150;2022-11-18T00:13:05;2.60;99.90
14277;DHT22;7222;57.346;12.150;2022-11-18T00:15:59;2.40;99.90
14277;DHT22;7222;57.346;12.150;2022-11-18T00:18:26;2.50;99.90
14277;DHT22;7222;57.346;12.150;2022-11-18T00:20:53;2.70;99.90
14277;DHT22;7222;57.346;12.150;2022-11-18T00:23:20;2.50;99.90
14277;DHT22;7222;57.346;12.150;2022-11-18T00:25:48;2.60;99.90
14277;DHT22;7222;57.346;12.150;2022-11-18T00:28:16;2.60;99.90
14277;DHT22;7222;57.346;12.150;2022-11-18T00:30:43;2.50;99.90
14277;DHT22;7222;57.346;12.150;2022-11-18T00:33:10;2.50;99.90
14277;DHT22;7222;57.346;12.150;2022-11-18T00:35:37;2.50;99.90
14277;DHT22;7222;57.346;12.150;2022-11-18T00:38:04;2.50;99.90
14277;DHT22;7222;57.346;12.150;2022-11-18T00:40:32;2.60;99.90
14277;DHT22;7222;57.346;12.150;2022-11-18T00:42:59;2.70;99.90
14277;DHT22;7222;57.346;12.150;2022-11-18T00:45:26;2.70;99.90
14277;DHT22;7222;57.346;12.150;2022-11-18T00:47:53;2.60;99.90
14277;DHT22;7222;57.346;12.150;2022-11-18T00:50:20;2.60;99.90
14277;DHT22;7222;57.346;12.150;2022-11-18T00:52:47;2.70;99.90
14277;DHT22;7222;57.346;12.150;2022-11-18T00:55:14;2.70;99.90
14277;DHT22;7222;57.346;12.150;2022-11-18T00:57:42;2.70;99.90
14277;DHT22;7222;57.346;12.150;2022-11-18T01:00:12;2.70;99.90
14277;DHT22;7222;57.346;12.150;2022-11-18T01:02:41;2.70;99.90
14277;DHT22;7222;57.346;12.150;2022-11-18T01:05:09;2.80;99.90
14277;DHT22;7222;57.346;12.150;2022-11-18T01:07:36;2.70;99.90
14277;DHT22;7222;57.346;12.150;2022-11-18T01:10:03;2.60;99.90
14277;DHT22;7222;57.346;12.150;2022-11-18T01:12:30;2.70;99.90
14277;DHT22;7222;57.346;12.150;2022-11-18T01:15:15;2.70;99.90
14277;DHT22;7222;57.346;12.150;2022-11-18T01:17:43;2.70;99.90
14277;DHT22;7222;57.346;12.150;2022-11-18T01:20:11;2.70;99.90
14277;DHT22;7222;57.346;12.150;2022-11-18T01:22:38;2.80;99.90
14277;DHT22;7222;57.346;12.150;2022-11-18T01:25:05;2.70;99.90
14277;DHT22;7222;57.346;12.150;2022-11-18T01:27:32;2.80;99.90
14277;DHT22;7222;57.346;12.150;2022-11-18T01:30:00;3.00;99.90
14277;DHT22;7222;57.346;12.150;2022-11-18T01:32:27;2.90;99.90
14277;DHT22;7222;57.346;12.150;2022-11-18T01:34:56;2.90;99.90
14277;DHT22;7222;57.346;12.150;2022-11-18T01:37:23;2.90;99.90
14277;DHT22;7222;57.346;12.150;2022-11-18T01:39:50;3.10;99.90
14277;DHT22;7222;57.346;12.150;2022-11-18T01:42:17;3.10;99.90
14277;DHT22;7222;57.346;12.150;2022-11-18T01:45:03;3.10;99.90
14277;DHT22;7222;57.346;12.150;2022-11-18T01:47:38;3.00;99.90
14277;DHT22;7222;57.346;12.150;2022-11-18T01:50:08;3.00;99.90
14277;DHT22;7222;57.346;12.150;2022-11-18T01:52:39;3.10;99.90
14277;DHT22;7222;57.346;12.150;2022-11-18T01:55:10;3.10;99.90
14277;DHT22;7222;57.346;12.150;2022-11-18T01:57:40;2.90;99.90
14277;DHT22;7222;57.346;12.150;2022-11-18T02:00:08;3.00;99.90
14277;DHT22;7222;57.346;12.150;2022-11-18T02:02:36;3.00;99.90
14277;DHT22;7222;57.346;12.150;2022-11-18T02:05:07;2.90;99.90
14277;DHT22;7222;57.346;12.150;2022-11-18T02:07:37;2.90;99.90
14277;DHT22;7222;57.346;12.150;2022-11-18T02:10:07;3.00;99.90
14277;DHT22;7222;57.346;12.150;2022-11-18T02:12:35;3.10;99.90
14277;DHT22;7222;57.346;12.150;2022-11-18T02:15:04;3.00;99.90
14277;DHT22;7222;57.346;12.150;2022-11-18T02:17:39;3.00;99.90
14277;DHT22;7222;57.346;12.150;2022-11-18T02:20:39;3.00;99.90
14277;DHT22;7222;57.346;12.150;2022-11-18T02:26:55;3.10;99.90
14277;DHT22;7222;57.346;12.150;2022-11-18T02:29:29;3.00;99.90
14277;DHT22;7222;57.346;12.150;2022-11-18T02:32:02;3.00;99.90
14277;DHT22;7222;57.346;12.150;2022-11-18T02:34:47;3.10;99.90
14277;DHT22;7222;57.346;12.150;2022-11-18T02:37:21;3.00;99.90
14277;DHT22;7222;57.346;12.150;2022-11-18T02:39:53;3.00;99.90
14277;DHT22;7222;57.346;12.150;2022-11-18T02:42:23;3.00;99.90
14277;DHT22;7222;57.346;12.150;2022-11-18T02:44:56;2.90;99.90
14277;DHT22;7222;57.346;12.150;2022-11-18T02:47:26;2.90;99.90
14277;DHT22;7222;57.346;12.150;2022-11-18T02:49:59;3.00;99.90
14277;DHT22;7222;57.346;12.150;2022-11-18T02:52:27;2.90;99.90
14277;DHT22;7222;57.346;12.150;2022-11-18T02:54:55;3.00;99.90
14277;DHT22;7222;57.346;12.150;2022-11-18T02:57:24;3.00;99.90
14277;DHT22;7222;57.346;12.150;2022-11-18T02:59:53;2.90;99.90
14277;DHT22;7222;57.346;12.150;2022-11-18T03:02:21;3.00;99.90
14277;DHT22;7222;57.346;12.150;2022-11-18T03:04:52;3.00;99.90
14277;DHT22;7222;57.346;12.150;2022-11-18T03:07:25;3.00;99.90
14277;DHT22;7222;57.346;12.150;2022-11-18T03:09:54;3.00;99.90
14277;DHT22;7222;57.346;12.150;2022-11-18T03:12:26;3.00;99.90
14277;DHT22;7222;57.346;12.150;2022-11-18T03:15:02;3.00;99.90
14277;DHT22;7222;57.346;12.150;2022-11-18T03:17:42;3.00;99.90
14277;DHT22;7222;57.346;12.150;2022-11-18T03:20:16;2.90;99.90
14277;DHT22;7222;57.346;12.150;2022-11-18T03:22:49;2.90;99.90
14277;DHT22;7222;57.346;12.150;2022-11-18T03:25:20;2.80;99.90
14277;DHT22;7222;57.346;12.150;2022-11-18T03:27:52;2.80;99.90
14277;DHT22;7222;57.346;12.150;2022-11-18T03:30:22;2.80;99.90
14277;DHT22;7222;57.346;12.150;2022-11-18T03:32:52;2.80;99.90
14277;DHT22;7222;57.346;12.150;2022-11-18T03:35:25;2.90;99.90
14277;DHT22;7222;57.346;12.150;2022-11-18T03:38:01;2.90;99.90
14277;DHT22;7222;57.346;12.150;2022-11-18T03:40:37;2.90;99.90
14277;DHT22;7222;57.346;12.150;2022-11-18T03:43:08;2.90;99.90
14277;DHT22;7222;57.346;12.150;2022-11-18T03:45:41;2.90;99.90
14277;DHT22;7222;57.346;12.150;2022-11-18T03:48:13;3.00;99.90
14277;DHT22;7222;57.346;12.150;2022-11-18T03:50:44;2.90;99.90
14277;DHT22;7222;57.346;12.150;2022-11-18T03:53:13;2.90;99.90
14277;DHT22;7222;57.346;12.150;2022-11-18T03:55:44;2.90;99.90
14277;DHT22;7222;57.346;12.150;2022-11-18T03:58:18;2.90;99.90
14277;DHT22;7222;57.346;12.150;2022-11-18T04:00:52;2.80;99.90
14277;DHT22;7222;57.346;12.150;2022-11-18T04:03:21;2.80;99.90
14277;DHT22;7222;57.346;12.150;2022-11-18T04:05:55;2.80;99.90
14277;DHT22;7222;57.346;12.150;2022-11-18T04:08:26;2.70;99.90
14277;DHT22;7222;57.346;12.150;2022-11-18T04:10:59;2.70;99.90
14277;DHT22;7222;57.346;12.150;2022-11-18T04:13:29;2.70;99.90
14277;DHT22;7222;57.346;12.150;2022-11-18T04:15:59;2.70;99.90
14277;DHT22;7222;57.346;12.150;2022-11-18T04:18:27;2.70;99.90
14277;DHT22;7222;57.346;12.150;2022-11-18T04:20:53;2.60;99.90
14277;DHT22;7222;57.346;12.150;2022-11-18T04:23:21;2.60;99.90
14277;DHT22;7222;57.346;12.150;2022-11-18T04:25:48;2.60;99.90
14277;DHT22;7222;57.346;12.150;2022-11-18T04:28:15;2.50;99.90
14277;DHT22;7222;57.346;12.150;2022-11-18T04:30:42;2.50;99.90
14277;DHT22;7222;57.346;12.150;2022-11-18T04:33:10;2.50;99.90
14277;DHT22;7222;57.346;12.150;2022-11-18T04:35:37;2.60;99.90
14277;DHT22;7222;57.346;12.150;2022-11-18T04:38:05;2.50;99.90
14277;DHT22;7222;57.346;12.150;2022-11-18T04:40:32;2.60;99.90
14277;DHT22;7222;57.346;12.150;2022-11-18T04:42:59;2.50;99.90
14277;DHT22;7222;57.346;12.150;2022-11-18T04:45:26;2.50;99.90
14277;DHT22;7222;57.346;12.150;2022-11-18T04:47:54;2.50;99.90
14277;DHT22;7222;57.346;12.150;2022-11-18T04:50:23;2.50;99.90
14277;DHT22;7222;57.346;12.150;2022-11-18T04:52:50;2.40;99.90
14277;DHT22;7222;57.346;12.150;2022-11-18T04:55:17;2.50;99.90
14277;DHT22;7222;57.346;12.150;2022-11-18T04:57:45;2.40;99.90
14277;DHT22;7222;57.346;12.150;2022-11-18T05:00:12;2.40;99.90
14277;DHT22;7222;57.346;12.150;2022-11-18T05:02:39;2.40;99.90
14277;DHT22;7222;57.346;12.150;2022-11-18T05:05:08;2.40;99.90
14277;DHT22;7222;57.346;12.150;2022-11-18T05:07:36;2.40;99.90
14277;DHT22;7222;57.346;12.150;2022-11-18T05:10:05;2.40;99.90
14277;DHT22;7222;57.346;12.150;2022-11-18T05:12:33;2.40;99.90
14277;DHT22;7222;57.346;12.150;2022-11-18T05:15:14;2.50;99.90
14277;DHT22;7222;57.346;12.150;2022-11-18T05:17:41;2.60;99.90
14277;DHT22;7222;57.346;12.150;2022-11-18T05:20:09;2.50;99.90
14277;DHT22;7222;57.346;12.150;2022-11-18T05:22:38;2.60;99.90
14277;DHT22;7222;57.346;12.150;2022-11-18T05:25:06;2.70;99.90
14277;DHT22;7222;57.346;12.150;2022-11-18T05:27:33;2.60;99.90
14277;DHT22;7222;57.346;12.150;2022-11-18T05:30:00;2.60;99.90
14277;DHT22;7222;57.346;12.150;2022-11-18T05:32:28;2.70;99.90
14277;DHT22;7222;57.346;12.150;2022-11-18T05:34:58;2.70;99.90
14277;DHT22;7222;57.346;12.150;2022-11-18T05:37:25;2.80;99.90
14277;DHT22;7222;57.346;12.150;2022-11-18T05:39:53;2.70;99.90
14277;DHT22;7222;57.346;12.150;2022-11-18T05:42:20;2.70;99.90
14277;DHT22;7222;57.346;12.150;2022-11-18T05:45:05;2.80;99.90
14277;DHT22;7222;57.346;12.150;2022-11-18T05:47:32;2.80;99.90
14277;DHT22;7222;57.346;12.150;2022-11-18T05:50:19;2.80;99.90
14277;DHT22;7222;57.346;12.150;2022-11-18T05:52:46;2.90;99.90
14277;DHT22;7222;57.346;12.150;2022-11-18T05:55:18;2.90;99.90
14277;DHT22;7222;57.346;12.150;2022-11-18T05:57:46;2.80;99.90
14277;DHT22;7222;57.346;12.150;2022-11-18T06:00:14;2.80;99.90
14277;DHT22;7222;57.346;12.150;2022-11-18T06:02:42;2.80;99.90
14277;DHT22;7222;57.346;12.150;2022-11-18T06:05:11;2.80;99.90
14277;DHT22;7222;57.346;12.150;2022-11-18T06:07:40;2.90;99.90
14277;DHT22;7222;57.346;12.150;2022-11-18T06:10:12;2.90;99.90
14277;DHT22;7222;57.346;12.150;2022-11-18T06:12:45;3.00;99.90
14277;DHT22;7222;57.346;12.150;2022-11-18T06:15:16;2.90;99.90
14277;DHT22;7222;57.346;12.150;2022-11-18T06:17:47;2.90;99.90
14277;DHT22;7222;57.346;12.150;2022-11-18T06:20:17;3.00;99.90
14277;DHT22;7222;57.346;12.150;2022-11-18T06:22:44;3.00;99.90
14277;DHT22;7222;57.346;12.150;2022-11-18T06:25:12;3.00;99.90
14277;DHT22;7222;57.346;12.150;2022-11-18T06:27:39;3.00;99.90
14277;DHT22;7222;57.346;12.150;2022-11-18T06:30:09;3.00;99.90
14277;DHT22;7222;57.346;12.150;2022-11-18T06:32:36;3.00;99.90
14277;DHT22;7222;57.346;12.150;2022-11-18T06:35:04;3.00;99.90
14277;DHT22;7222;57.346;12.150;2022-11-18T06:37:31;3.00;99.90
14277;DHT22;7222;57.346;12.150;2022-11-18T06:39:59;3.00;99.90
14277;DHT22;7222;57.346;12.150;2022-11-18T06:42:26;3.00;99.90
14277;DHT22;7222;57.346;12.150;2022-11-18T06:45:12;3.00;99.90
14277;DHT22;7222;57.346;12.150;2022-11-18T06:47:40;3.00;99.90
14277;DHT22;7222;57.346;12.150;2022-11-18T06:50:06;3.00;99.90
14277;DHT22;7222;57.346;12.150;2022-11-18T06:52:33;3.10;99.90
14277;DHT22;7222;57.346;12.150;2022-11-18T06:55:01;3.00;99.90
14277;DHT22;7222;57.346;12.150;2022-11-18T06:57:30;3.00;99.90
14277;DHT22;7222;57.346;12.150;2022-11-18T06:59:57;3.00;99.90
14277;DHT22;7222;57.346;12.150;2022-11-18T07:02:26;3.00;99.90
14277;DHT22;7222;57.346;12.150;2022-11-18T07:04:53;2.90;99.90
14277;DHT22;7222;57.346;12.150;2022-11-18T07:07:20;2.90;99.90
14277;DHT22;7222;57.346;12.150;2022-11-18T07:09:47;2.90;99.90
14277;DHT22;7222;57.346;12.150;2022-11-18T07:12:14;2.90;99.90
14277;DHT22;7222;57.346;12.150;2022-11-18T07:14:41;2.90;99.90
14277;DHT22;7222;57.346;12.150;2022-11-18T07:17:08;2.80;99.90
14277;DHT22;7222;57.346;12.150;2022-11-18T07:19:37;2.80;99.90
14277;DHT22;7222;57.346;12.150;2022-11-18T07:22:05;2.80;99.90
14277;DHT22;7222;57.346;12.150;2022-11-18T07:24:33;2.80;99.90
14277;DHT22;7222;57.346;12.150;2022-11-18T07:27:00;2.90;99.90
14277;DHT22;7222;57.346;12.150;2022-11-18T07:29:27;2.90;99.90
14277;DHT22;7222;57.346;12.150;2022-11-18T07:31:54;2.90;99.90
14277;DHT22;7222;57.346;12.150;2022-11-18T07:34:21;2.80;99.90
14277;DHT22;7222;57.346;12.150;2022-11-18T07:36:51;2.80;99.90
14277;DHT22;7222;57.346;12.150;2022-11-18T07:39:18;2.80;99.90
14277;DHT22;7222;57.346;12.150;2022-11-18T07:41:45;2.70;99.90
14277;DHT22;7222;57.346;12.150;2022-11-18T07:44:12;2.70;99.90
14277;DHT22;7222;57.346;12.150;2022-11-18T07:46:40;2.70;99.90
14277;DHT22;7222;57.346;12.150;2022-11-18T07:49:07;2.70;99.90
14277;DHT22;7222;57.346;12.150;2022-11-18T07:51:36;2.70;99.90
14277;DHT22;7222;57.346;12.150;2022-11-18T07:54:10;2.70;99.90
14277;DHT22;7222;57.346;12.150;2022-11-18T07:56:37;2.60;99.90
14277;DHT22;7222;57.346;12.150;2022-11-18T07:59:05;2.60;99.90
14277;DHT22;7222;57.346;12.150;2022-11-18T08:01:32;2.60;99.90
14277;DHT22;7222;57.346;12.150;2022-11-18T08:04:05;2.60;99.90
14277;DHT22;7222;57.346;12.150;2022-11-18T08:06:33;2.60;99.90
14277;DHT22;7222;57.346;12.150;2022-11-18T08:09:00;2.50;99.90
14277;DHT22;7222;57.346;12.150;2022-11-18T08:11:29;2.50;99.90
14277;DHT22;7222;57.346;12.150;2022-11-18T08:13:56;2.50;99.90
14277;DHT22;7222;57.346;12.150;2022-11-18T08:16:24;2.50;99.90
14277;DHT22;7222;57.346;12.150;2022-11-18T08:18:52;2.50;99.90
14277;DHT22;7222;57.346;12.150;2022-11-18T08:21:20;2.50;99.90
14277;DHT22;7222;57.346;12.150;2022-11-18T08:23:49;2.50;99.90
14277;DHT22;7222;57.346;12.150;2022-11-18T08:26:16;2.50;99.90
14277;DHT22;7222;57.346;12.150;2022-11-18T08:28:45;2.50;99.90
14277;DHT22;7222;57.346;12.150;2022-11-18T08:31:15;2.50;99.90
14277;DHT22;7222;57.346;12.150;2022-11-18T08:33:42;2.50;99.90
14277;DHT22;7222;57.346;12.150;2022-11-18T08:36:14;2.50;99.90
14277;DHT22;7222;57.346;12.150;2022-11-18T08:38:41;2.60;99.90
14277;DHT22;7222;57.346;12.150;2022-11-18T08:41:11;2.60;99.90
14277;DHT22;7222;57.346;12.150;2022-11-18T08:43:38;2.60;99.90
14277;DHT22;7222;57.346;12.150;2022-11-18T08:46:07;2.60;99.90
14277;DHT22;7222;57.346;12.150;2022-11-18T08:48:35;2.60;99.90
14277;DHT22;7222;57.346;12.150;2022-11-18T08:51:02;2.60;99.90
14277;DHT22;7222;57.346;12.150;2022-11-18T08:53:29;2.70;99.90
14277;DHT22;7222;57.346;12.150;2022-11-18T08:55:57;2.70;99.90
14277;DHT22;7222;57.346;12.150;2022-11-18T08:58:25;2.70;99.90
14277;DHT22;7222;57.346;12.150;2022-11-18T09:00:52;2.90;99.90
14277;DHT22;7222;57.346;12.150;2022-11-18T09:03:21;2.90;99.90
14277;DHT22;7222;57.346;12.150;2022-11-18T09:05:48;3.30;99.90
14277;DHT22;7222;57.346;12.150;2022-11-18T09:08:15;3.50;99.90
14277;DHT22;7222;57.346;12.150;2022-11-18T09:10:43;3.60;99.90
14277;DHT22;7222;57.346;12.150;2022-11-18T09:13:10;3.70;99.90
14277;DHT22;7222;57.346;12.150;2022-11-18T09:15:37;4.00;99.90
14277;DHT22;7222;57.346;12.150;2022-11-18T09:18:04;4.80;99.90
14277;DHT22;7222;57.346;12.150;2022-11-18T09:20:33;4.40;99.90
14277;DHT22;7222;57.346;12.150;2022-11-18T09:23:01;5.10;99.90
14277;DHT22;7222;57.346;12.150;2022-11-18T09:25:28;5.20;99.90
14277;DHT22;7222;57.346;12.150;2022-11-18T09:27:55;5.70;99.90
14277;DHT22;7222;57.346;12.150;2022-11-18T09:30:22;6.30;99.90
14277;DHT22;7222;57.346;12.150;2022-11-18T09:32:49;7.00;99.90
14277;DHT22;7222;57.346;12.150;2022-11-18T09:35:17;8.10;99.90
14277;DHT22;7222;57.346;12.150;2022-11-18T09:37:45;7.50;99.90
14277;DHT22;7222;57.346;12.150;2022-11-18T09:40:15;7.30;99.90
14277;DHT22;7222;57.346;12.150;2022-11-18T09:42:52;8.00;99.90
14277;DHT22;7222;57.346;12.150;2022-11-18T09:45:23;9.50;99.90
14277;DHT22;7222;57.346;12.150;2022-11-18T09:47:50;8.20;99.90
14277;DHT22;7222;57.346;12.150;2022-11-18T09:50:19;9.10;99.90
14277;DHT22;7222;57.346;12.150;2022-11-18T09:52:58;9.10;99.90
14277;DHT22;7222;57.346;12.150;2022-11-18T09:55:30;9.70;99.90
14277;DHT22;7222;57.346;12.150;2022-11-18T09:57:59;8.30;99.90
14277;DHT22;7222;57.346;12.150;2022-11-18T10:00:27;8.80;99.90
14277;DHT22;7222;57.346;12.150;2022-11-18T10:02:59;8.80;99.90
14277;DHT22;7222;57.346;12.150;2022-11-18T10:05:29;11.40;99.90
14277;DHT22;7222;57.346;12.150;2022-11-18T10:08:17;10.70;99.90
14277;DHT22;7222;57.346;12.150;2022-11-18T10:10:55;12.10;99.90
14277;DHT22;7222;57.346;12.150;2022-11-18T10:13:35;11.90;99.90
14277;DHT22;7222;57.346;12.150;2022-11-18T10:16:20;11.40;99.90
14277;DHT22;7222;57.346;12.150;2022-11-18T10:18:54;12.00;99.90
14277;DHT22;7222;57.346;12.150;2022-11-18T10:21:31;11.20;99.90
14277;DHT22;7222;57.346;12.150;2022-11-18T10:24:09;11.70;99.90
14277;DHT22;7222;57.346;12.150;2022-11-18T10:26:39;11.30;99.90
14277;DHT22;7222;57.346;12.150;2022-11-18T10:29:08;11.40;99.90
14277;DHT22;7222;57.346;12.150;2022-11-18T10:31:36;12.40;99.90
14277;DHT22;7222;57.346;12.150;2022-11-18T10:34:04;12.70;99.90
14277;DHT22;7222;57.346;12.150;2022-11-18T10:36:31;12.20;99.90
14277;DHT22;7222;57.346;12.150;2022-11-18T10:39:10;11.50;99.90
14277;DHT22;7222;57.346;12.150;2022-11-18T10:41:41;12.70;99.90
14277;DHT22;7222;57.346;12.150;2022-11-18T10:44:29;13.50;99.90
14277;DHT22;7222;57.346;12.150;2022-11-18T10:47:14;12.90;99.90
14277;DHT22;7222;57.346;12.150;2022-11-18T10:49:42;13.30;99.90
14277;DHT22;7222;57.346;12.150;2022-11-18T10:52:10;13.70;99.90
14277;DHT22;7222;57.346;12.150;2022-11-18T10:54:40;13.30;99.90
14277;DHT22;7222;57.346;12.150;2022-11-18T10:57:14;13.80;99.90
14277;DHT22;7222;57.346;12.150;2022-11-18T10:59:47;12.00;99.90
14277;DHT22;7222;57.346;12.150;2022-11-18T11:02:17;13.30;99.90
14277;DHT22;7222;57.346;12.150;2022-11-18T11:04:46;13.50;99.90
14277;DHT22;7222;57.346;12.150;2022-11-18T11:07:24;14.60;99.90
14277;DHT22;7222;57.346;12.150;2022-11-18T11:10:05;14.40;99.90
14277;DHT22;7222;57.346;12.150;2022-11-18T11:12:42;14.90;99.90
14277;DHT22;7222;57.346;12.150;2022-11-18T11:15:15;14.40;99.90
14277;DHT22;7222;57.346;12.150;2022-11-18T11:17:49;14.80;99.90
14277;DHT22;7222;57.346;12.150;2022-11-18T11:20:37;14.40;99.90
14277;DHT22;7222;57.346;12.150;2022-11-18T11:23:08;13.30;99.90
14277;DHT22;7222;57.346;12.150;2022-11-18T11:25:48;12.70;99.90
14277;DHT22;7222;57.346;12.150;2022-11-18T11:28:23;12.90;99.90
14277;DHT22;7222;57.346;12.150;2022-11-18T11:31:03;12.90;99.90
14277;DHT22;7222;57.346;12.150;2022-11-18T11:33:37;12.90;99.90
14277;DHT22;7222;57.346;12.150;2022-11-18T11:36:17;11.80;99.90
14277;DHT22;7222;57.346;12.150;2022-11-18T11:38:58;11.50;99.90
14277;DHT22;7222;57.346;12.150;2022-11-18T11:41:29;10.50;99.90
14277;DHT22;7222;57.346;12.150;2022-11-18T11:44:18;10.20;99.90
14277;DHT22;7222;57.346;12.150;2022-11-18T11:46:53;10.20;99.90
14277;DHT22;7222;57.346;12.150;2022-11-18T11:49:53;9.90;99.90
14277;DHT22;7222;57.346;12.150;2022-11-18T11:52:33;10.20;99.90
14277;DHT22;7222;57.346;12.150;2022-11-18T11:55:14;9.90;99.90
14277;DHT22;7222;57.346;12.150;2022-11-18T11:58:00;9.90;99.90
14277;DHT22;7222;57.346;12.150;2022-11-18T12:00:35;9.70;99.90
14277;DHT22;7222;57.346;12.150;2022-11-18T12:03:16;10.00;99.90
14277;DHT22;7222;57.346;12.150;2022-11-18T12:05:45;9.90;99.90
14277;DHT22;7222;57.346;12.150;2022-11-18T12:08:15;9.80;99.90
14277;DHT22;7222;57.346;12.150;2022-11-18T12:10:45;9.50;99.90
14277;DHT22;7222;57.346;12.150;2022-11-18T12:13:35;9.40;99.90
14277;DHT22;7222;57.346;12.150;2022-11-18T12:16:13;9.10;99.90
14277;DHT22;7222;57.346;12.150;2022-11-18T12:18:44;8.90;99.90
14277;DHT22;7222;57.346;12.150;2022-11-18T12:24:33;8.70;99.90
14277;DHT22;7222;57.346;12.150;2022-11-18T12:27:04;8.50;99.90
14277;DHT22;7222;57.346;12.150;2022-11-18T12:29:43;8.40;99.90
14277;DHT22;7222;57.346;12.150;2022-11-18T12:32:27;8.30;99.90
14277;DHT22;7222;57.346;12.150;2022-11-18T12:35:00;8.10;99.90
14277;DHT22;7222;57.346;12.150;2022-11-18T12:37:41;8.00;99.90
14277;DHT22;7222;57.346;12.150;2022-11-18T12:40:10;8.00;99.90
14277;DHT22;7222;57.346;12.150;2022-11-18T12:42:42;7.90;99.90
14277;DHT22;7222;57.346;12.150;2022-11-18T12:45:59;7.80;99.90
14277;DHT22;7222;57.346;12.150;2022-11-18T12:48:37;7.70;99.90
14277;DHT22;7222;57.346;12.150;2022-11-18T12:54:21;7.50;99.90
14277;DHT22;7222;57.346;12.150;2022-11-18T12:56:50;7.40;99.90
14277;DHT22;7222;57.346;12.150;2022-11-18T12:59:25;7.40;99.90
14277;DHT22;7222;57.346;12.150;2022-11-18T13:02:18;7.30;99.90
14277;DHT22;7222;57.346;12.150;2022-11-18T13:05:01;7.20;99.90
14277;DHT22;7222;57.346;12.150;2022-11-18T13:07:31;7.20;99.90
14277;DHT22;7222;57.346;12.150;2022-11-18T13:10:21;7.20;99.90
14277;DHT22;7222;57.346;12.150;2022-11-18T13:12:50;7.10;99.90
14277;DHT22;7222;57.346;12.150;2022-11-18T13:15:18;7.10;99.90
14277;DHT22;7222;57.346;12.150;2022-11-18T13:18:13;7.10;99.90
14277;DHT22;7222;57.346;12.150;2022-11-18T13:20:42;7.00;99.90
14277;DHT22;7222;57.346;12.150;2022-11-18T13:23:30;6.90;99.90
14277;DHT22;7222;57.346;12.150;2022-11-18T13:26:19;6.80;99.90
14277;DHT22;7222;57.346;12.150;2022-11-18T13:29:16;6.80;99.90
14277;DHT22;7222;57.346;12.150;2022-11-18T13:31:54;6.70;99.90
14277;DHT22;7222;57.346;12.150;2022-11-18T13:34:27;6.70;99.90
14277;DHT22;7222;57.346;12.150;2022-11-18T13:36:57;6.90;99.90
14277;DHT22;7222;57.346;12.150;2022-11-18T13:39:26;7.20;99.90
14277;DHT22;7222;57.346;12.150;2022-11-18T13:42:00;7.60;99.90
14277;DHT22;7222;57.346;12.150;2022-11-18T13:44:29;7.90;99.90
14277;DHT22;7222;57.346;12.150;2022-11-18T13:47:02;8.30;99.90
14277;DHT22;7222;57.346;12.150;2022-11-18T13:49:44;8.30;99.90
14277;DHT22;7222;57.346;12.150;2022-11-18T13:52:15;8.50;99.90
14277;DHT22;7222;57.346;12.150;2022-11-18T13:54:45;8.40;99.90
14277;DHT22;7222;57.346;12.150;2022-11-18T13:57:16;7.90;99.90
14277;DHT22;7222;57.346;12.150;2022-11-18T13:59:46;7.40;99.90
14277;DHT22;7222;57.346;12.150;2022-11-18T14:02:15;7.20;99.90
14277;DHT22;7222;57.346;12.150;2022-11-18T14:04:51;7.00;99.90
14277;DHT22;7222;57.346;12.150;2022-11-18T14:07:26;6.80;99.90
14277;DHT22;7222;57.346;12.150;2022-11-18T14:09:54;6.80;99.90
14277;DHT22;7222;57.346;12.150;2022-11-18T14:12:23;6.60;99.90
14277;DHT22;7222;57.346;12.150;2022-11-18T14:17:35;6.50;99.90
14277;DHT22;7222;57.346;12.150;2022-11-18T14:20:07;6.40;99.90
14277;DHT22;7222;57.346;12.150;2022-11-18T14:22:42;6.40;99.90
14277;DHT22;7222;57.346;12.150;2022-11-18T14:25:17;6.30;99.90
14277;DHT22;7222;57.346;12.150;2022-11-18T14:27:45;6.20;99.90
14277;DHT22;7222;57.346;12.150;2022-11-18T14:30:32;6.20;99.90
14277;DHT22;7222;57.346;12.150;2022-11-18T14:33:14;6.30;99.90
14277;DHT22;7222;57.346;12.150;2022-11-18T14:35:47;6.00;99.90
14277;DHT22;7222;57.346;12.150;2022-11-18T14:38:20;6.00;99.90
14277;DHT22;7222;57.346;12.150;2022-11-18T14:40:53;6.00;99.90
14277;DHT22;7222;57.346;12.150;2022-11-18T14:43:21;5.90;99.90
14277;DHT22;7222;57.346;12.150;2022-11-18T14:45:49;5.90;99.90
14277;DHT22;7222;57.346;12.150;2022-11-18T14:48:19;5.80;99.90
14277;DHT22;7222;57.346;12.150;2022-11-18T14:50:48;5.70;99.90
14277;DHT22;7222;57.346;12.150;2022-11-18T14:53:17;5.80;99.90
14277;DHT22;7222;57.346;12.150;2022-11-18T14:55:45;5.70;99.90
14277;DHT22;7222;57.346;12.150;2022-11-18T14:58:13;5.90;99.90
14277;DHT22;7222;57.346;12.150;2022-11-18T15:00:40;5.60;99.90
14277;DHT22;7222;57.346;12.150;2022-11-18T15:03:08;5.60;99.90
14277;DHT22;7222;57.346;12.150;2022-11-18T15:05:35;5.60;99.90
14277;DHT22;7222;57.346;12.150;2022-11-18T15:08:04;5.60;99.90
14277;DHT22;7222;57.346;12.150;2022-11-18T15:10:31;5.50;99.90
14277;DHT22;7222;57.346;12.150;2022-11-18T15:12:58;5.40;99.90
14277;DHT22;7222;57.346;12.150;2022-11-18T15:15:26;5.30;99.90
14277;DHT22;7222;57.346;12.150;2022-11-18T15:17:53;5.30;99.90
14277;DHT22;7222;57.346;12.150;2022-11-18T15:20:21;5.30;99.90
14277;DHT22;7222;57.346;12.150;2022-11-18T15:22:48;5.30;99.90
14277;DHT22;7222;57.346;12.150;2022-11-18T15:25:17;5.10;99.90
14277;DHT22;7222;57.346;12.150;2022-11-18T15:27:44;5.10;99.90
14277;DHT22;7222;57.346;12.150;2022-11-18T15:30:12;5.00;99.90
14277;DHT22;7222;57.346;12.150;2022-11-18T15:32:40;5.00;99.90
14277;DHT22;7222;57.346;12.150;2022-11-18T15:35:09;5.00;99.90
14277;DHT22;7222;57.346;12.150;2022-11-18T15:37:37;5.00;99.90
14277;DHT22;7222;57.346;12.150;2022-11-18T15:40:05;4.90;99.90
14277;DHT22;7222;57.346;12.150;2022-11-18T15:42:34;4.90;99.90
14277;DHT22;7222;57.346;12.150;2022-11-18T15:45:01;4.80;99.90
14277;DHT22;7222;57.346;12.150;2022-11-18T15:47:28;4.90;99.90
14277;DHT22;7222;57.346;12.150;2022-11-18T15:49:55;4.90;99.90
14277;DHT22;7222;57.346;12.150;2022-11-18T15:52:22;4.70;99.90
14277;DHT22;7222;57.346;12.150;2022-11-18T15:54:49;4.70;99.90
14277;DHT22;7222;57.346;12.150;2022-11-18T15:57:16;4.60;99.90
14277;DHT22;7222;57.346;12.150;2022-11-18T15:59:46;4.60;99.90
14277;DHT22;7222;57.346;12.150;2022-11-18T16:02:13;4.50;99.90
14277;DHT22;7222;57.346;12.150;2022-11-18T16:04:40;4.60;99.90
14277;DHT22;7222;57.346;12.150;2022-11-18T16:07:07;4.50;99.90
14277;DHT22;7222;57.346;12.150;2022-11-18T16:09:34;4.60;99.90
14277;DHT22;7222;57.346;12.150;2022-11-18T16:12:18;4.50;99.90
14277;DHT22;7222;57.346;12.150;2022-11-18T16:15:05;4.50;99.90
14277;DHT22;7222;57.346;12.150;2022-11-18T16:17:50;4.50;99.90
14277;DHT22;7222;57.346;12.150;2022-11-18T16:20:17;4.50;99.90
14277;DHT22;7222;57.346;12.150;2022-11-18T16:22:44;4.50;99.90